createdAt,value
2023-05-04T00:00:58.933Z,57.63
2023-05-04T00:03:31.429Z,57.54
2023-05-04T00:06:03.782Z,57.49
2023-05-04T00:08:36.099Z,57.26
2023-05-04T00:11:08.569Z,57.00
2023-05-04T00:13:40.916Z,57.15
2023-05-04T00:16:14.024Z,56.94
2023-05-04T00:18:46.708Z,57.05
2023-05-04T00:21:18.975Z,56.87
2023-05-04T00:23:51.249Z,56.81
2023-05-04T00:26:23.554Z,56.87
2023-05-04T00:28:56.018Z,57.00
2023-05-04T00:31:30.003Z,57.14
2023-05-04T00:34:02.257Z,56.84
2023-05-04T00:36:34.442Z,57.15
2023-05-04T00:39:06.983Z,57.27
2023-05-04T00:41:39.999Z,57.52
2023-05-04T00:44:12.697Z,57.67
2023-05-04T00:46:45.353Z,57.64
2023-05-04T00:49:21.477Z,57.75
2023-05-04T00:51:55.067Z,57.77
2023-05-04T00:54:28.958Z,57.52
2023-05-04T00:57:02.182Z,57.95
2023-05-04T00:59:34.497Z,57.63
2023-05-04T01:02:06.890Z,57.56
2023-05-04T01:04:42.633Z,57.86
2023-05-04T01:07:24.208Z,57.91
2023-05-04T01:10:00.882Z,57.99
2023-05-04T01:12:39.206Z,57.92
2023-05-04T01:15:13.456Z,57.78
2023-05-04T01:17:45.833Z,57.66
2023-05-04T01:20:19.803Z,57.61
2023-05-04T01:22:52.380Z,57.73
2023-05-04T01:25:29.553Z,57.93
2023-05-04T01:28:08.575Z,58.19
2023-05-04T01:30:45.118Z,58.18
2023-05-04T01:33:19.662Z,58.35
2023-05-04T01:35:52.893Z,58.39
2023-05-04T01:38:25.910Z,58.53
2023-05-04T01:40:59.187Z,58.62
2023-05-04T01:43:32.428Z,58.72
2023-05-04T01:46:04.677Z,58.81
2023-05-04T01:48:37.859Z,58.86
2023-05-04T01:51:11.035Z,58.70
2023-05-04T01:53:43.399Z,59.02
2023-05-04T01:56:16.071Z,58.92
2023-05-04T01:58:48.471Z,59.05
2023-05-04T02:01:21.262Z,58.87
2023-05-04T02:03:53.793Z,58.93
2023-05-04T02:06:26.336Z,58.95
2023-05-04T02:08:58.746Z,58.92
2023-05-04T02:11:31.698Z,59.05
2023-05-04T02:14:04.843Z,59.07
2023-05-04T02:16:37.469Z,59.12
2023-05-04T02:19:09.896Z,59.20
2023-05-04T02:21:43.108Z,59.64
2023-05-04T02:24:15.496Z,59.53
2023-05-04T02:26:48.923Z,59.46
2023-05-04T02:29:21.276Z,59.31
2023-05-04T02:31:53.572Z,59.05
2023-05-04T02:34:26.094Z,59.26
2023-05-04T02:37:00.093Z,59.24
2023-05-04T02:39:32.660Z,59.20
2023-05-04T02:42:05.133Z,59.03
2023-05-04T02:44:37.578Z,58.89
2023-05-04T02:47:10.139Z,58.82
2023-05-04T02:49:43.599Z,58.77
2023-05-04T02:52:17.013Z,58.92
2023-05-04T02:54:51.155Z,58.92
2023-05-04T02:57:25.278Z,58.92
2023-05-04T02:59:58.129Z,59.05
2023-05-04T03:02:35.108Z,59.03
2023-05-04T03:05:09.279Z,59.03
2023-05-04T03:07:44.255Z,58.96
2023-05-04T03:10:15.675Z,58.93
2023-05-04T03:12:49.996Z,59.02
2023-05-04T03:15:22.488Z,59.14
2023-05-04T03:17:55.170Z,59.19
2023-05-04T03:20:29.070Z,59.10
2023-05-04T03:23:03.673Z,59.15
2023-05-04T03:25:36.173Z,59.18
2023-05-04T03:28:12.748Z,59.42
2023-05-04T03:30:45.765Z,59.39
2023-05-04T03:33:18.010Z,59.14
2023-05-04T03:35:50.425Z,59.29
2023-05-04T03:38:23.362Z,59.15
2023-05-04T03:40:56.509Z,59.15
2023-05-04T03:43:29.797Z,59.28
2023-05-04T03:46:04.089Z,59.43
2023-05-04T03:48:36.377Z,59.61
2023-05-04T03:51:10.404Z,59.54
2023-05-04T03:53:44.808Z,59.55
2023-05-04T03:56:18.208Z,59.80
2023-05-04T03:58:51.275Z,59.76
2023-05-04T04:01:26.632Z,59.83
2023-05-04T04:03:59.820Z,59.89
2023-05-04T04:06:32.482Z,60.06
2023-05-04T04:09:05.388Z,60.15
2023-05-04T04:11:37.652Z,60.29
2023-05-04T04:14:10.337Z,60.28
2023-05-04T04:16:42.807Z,60.27
2023-05-04T04:19:15.997Z,60.33
2023-05-04T04:21:48.920Z,60.43
2023-05-04T04:24:21.384Z,60.48
2023-05-04T04:26:53.791Z,60.41
2023-05-04T04:29:27.328Z,60.44
2023-05-04T04:32:01.045Z,60.59
2023-05-04T04:34:36.207Z,60.71
2023-05-04T04:37:08.632Z,60.69
2023-05-04T04:39:40.890Z,60.62
2023-05-04T04:42:15.803Z,61.12
2023-05-04T04:44:49.577Z,61.65
2023-05-04T04:47:21.800Z,62.08
2023-05-04T04:49:54.211Z,62.18
2023-05-04T04:52:27.904Z,62.37
2023-05-04T04:55:01.593Z,62.60
2023-05-04T04:57:33.992Z,62.79
2023-05-04T05:00:09.610Z,62.83
2023-05-04T05:02:42.011Z,62.70
2023-05-04T05:05:14.896Z,62.48
2023-05-04T05:07:47.706Z,62.65
2023-05-04T05:10:21.145Z,62.69
2023-05-04T05:12:53.622Z,62.64
2023-05-04T05:15:26.369Z,62.51
2023-05-04T05:17:59.479Z,62.69
2023-05-04T05:20:31.953Z,62.30
2023-05-04T05:23:10.786Z,62.22
2023-05-04T05:25:44.732Z,62.25
2023-05-04T05:28:17.626Z,62.45
2023-05-04T05:30:52.033Z,62.21
2023-05-04T05:33:25.008Z,62.19
2023-05-04T05:35:58.587Z,62.02
2023-05-04T05:38:33.705Z,61.97
2023-05-04T05:41:10.158Z,62.05
2023-05-04T05:43:42.990Z,62.35
2023-05-04T05:46:15.628Z,62.30
2023-05-04T05:48:48.777Z,61.74
2023-05-04T05:51:21.061Z,61.75
2023-05-04T05:53:53.610Z,62.00
2023-05-04T05:56:27.218Z,61.92
2023-05-04T05:59:00.174Z,62.45
2023-05-04T06:01:32.700Z,62.25
2023-05-04T06:04:04.934Z,61.80
2023-05-04T06:06:37.459Z,61.33
2023-05-04T06:09:10.955Z,61.59
2023-05-04T06:11:43.299Z,61.59
2023-05-04T06:14:15.572Z,61.38
2023-05-04T06:16:48.075Z,60.74
2023-05-04T06:19:20.539Z,60.84
2023-05-04T06:21:53.028Z,60.19
2023-05-04T06:24:27.081Z,60.20
2023-05-04T06:26:59.794Z,60.96
2023-05-04T06:29:32.191Z,60.36
2023-05-04T06:32:05.424Z,60.62
2023-05-04T06:34:37.709Z,59.18
2023-05-04T06:37:10.028Z,58.61
2023-05-04T06:39:42.330Z,59.85
2023-05-04T06:42:14.815Z,59.81
2023-05-04T06:44:47.734Z,60.25
2023-05-04T06:47:19.992Z,59.73
2023-05-04T06:49:52.324Z,58.63
2023-05-04T06:52:24.543Z,57.41
2023-05-04T06:54:57.126Z,56.95
2023-05-04T06:57:30.401Z,56.00
2023-05-04T07:00:03.856Z,55.15
2023-05-04T07:02:36.166Z,55.46
2023-05-04T07:05:09.682Z,55.04
2023-05-04T07:07:41.828Z,54.33
2023-05-04T07:10:15.219Z,55.08
2023-05-04T07:12:47.458Z,54.52
2023-05-04T07:15:19.736Z,54.34
2023-05-04T07:17:52.247Z,54.87
2023-05-04T07:20:26.526Z,53.51
2023-05-04T07:22:59.051Z,53.57
2023-05-04T07:25:32.089Z,53.36
2023-05-04T07:28:04.837Z,50.71
2023-05-04T07:30:37.213Z,50.54
2023-05-04T07:33:09.602Z,49.78
2023-05-04T07:35:42.075Z,49.83
2023-05-04T07:38:14.531Z,50.40
2023-05-04T07:40:46.895Z,51.02
2023-05-04T07:43:19.054Z,48.88
2023-05-04T07:45:53.714Z,48.04
2023-05-04T07:48:26.349Z,48.23
2023-05-04T07:50:59.054Z,46.99
2023-05-04T07:53:31.466Z,48.35
2023-05-04T07:56:13.764Z,48.03
2023-05-04T07:58:47.618Z,47.27
2023-05-04T08:01:19.764Z,46.46
2023-05-04T08:03:51.926Z,45.86
2023-05-04T08:06:24.323Z,44.58
2023-05-04T08:08:56.784Z,44.40
2023-05-04T08:11:29.132Z,44.49
2023-05-04T08:14:01.585Z,44.21
2023-05-04T08:16:33.879Z,42.93
2023-05-04T08:19:06.082Z,42.74
2023-05-04T08:21:38.143Z,42.54
2023-05-04T08:24:10.835Z,42.52
2023-05-04T08:26:45.331Z,41.60
2023-05-04T08:29:20.139Z,41.45
2023-05-04T08:31:55.893Z,42.19
2023-05-04T08:34:29.460Z,43.00
2023-05-04T08:37:02.445Z,42.03
2023-05-04T08:39:34.640Z,41.32
2023-05-04T08:42:07.409Z,41.97
2023-05-04T08:44:40.338Z,41.37
2023-05-04T08:47:13.843Z,42.08
2023-05-04T08:49:46.114Z,42.85
2023-05-04T08:52:20.059Z,41.95
2023-05-04T08:54:54.419Z,42.13
2023-05-04T08:57:28.118Z,42.33
2023-05-04T09:00:02.665Z,41.55
2023-05-04T09:02:36.636Z,40.83
2023-05-04T09:05:10.772Z,40.66
2023-05-04T09:07:42.975Z,40.76
2023-05-04T09:10:15.339Z,41.57
2023-05-04T09:12:47.638Z,40.79
2023-05-04T09:15:21.004Z,40.97
2023-05-04T09:18:00.690Z,40.86
2023-05-04T09:20:43.730Z,41.04
2023-05-04T09:23:17.811Z,42.26
2023-05-04T09:25:50.952Z,40.58
2023-05-04T09:28:38.730Z,41.60
2023-05-04T09:31:12.019Z,41.31
2023-05-04T09:33:44.782Z,40.17
2023-05-04T09:36:18.769Z,39.30
2023-05-04T09:38:51.135Z,41.41
2023-05-04T09:41:34.466Z,41.23
2023-05-04T09:44:06.956Z,40.14
2023-05-04T09:46:39.334Z,39.30
2023-05-04T09:49:12.814Z,39.37
2023-05-04T09:51:45.579Z,39.93
2023-05-04T09:54:19.956Z,39.55
2023-05-04T09:56:55.988Z,39.94
2023-05-04T09:59:31.615Z,40.06
2023-05-04T10:02:10.907Z,38.73
2023-05-04T10:04:55.191Z,38.98
2023-05-04T10:07:30.858Z,38.99
2023-05-04T10:10:03.657Z,39.52
2023-05-04T10:12:35.836Z,38.93
2023-05-04T10:15:11.564Z,39.22
2023-05-04T10:17:59.904Z,39.31
2023-05-04T10:20:52.104Z,39.54
2023-05-04T10:23:47.365Z,38.95
2023-05-04T10:26:51.432Z,39.11
2023-05-04T10:29:25.973Z,39.28
2023-05-04T10:31:59.719Z,38.89
2023-05-04T10:34:33.694Z,38.90
2023-05-04T10:37:16.749Z,37.82
2023-05-04T10:39:55.397Z,37.93
2023-05-04T10:42:28.789Z,38.98
2023-05-04T10:45:01.010Z,37.95
2023-05-04T10:47:35.873Z,37.64
2023-05-04T10:50:07.509Z,36.99
2023-05-04T10:52:50.954Z,37.19
2023-05-04T10:55:26.042Z,37.36
2023-05-04T10:57:58.627Z,37.66
2023-05-04T11:00:41.016Z,37.73
2023-05-04T11:03:14.233Z,37.64
2023-05-04T11:05:50.847Z,37.61
2023-05-04T11:08:25.414Z,36.92
2023-05-04T11:11:07.895Z,36.61
2023-05-04T11:13:47.264Z,36.53
2023-05-04T11:16:25.930Z,36.46
2023-05-04T11:19:12.541Z,35.82
2023-05-04T11:21:45.047Z,37.31
2023-05-04T11:24:17.251Z,37.46
2023-05-04T11:26:50.155Z,37.64
2023-05-04T11:29:22.550Z,36.39
2023-05-04T11:31:58.085Z,37.32
2023-05-04T11:34:30.441Z,38.66
2023-05-04T11:37:05.666Z,37.92
2023-05-04T11:39:38.285Z,37.18
2023-05-04T11:42:12.358Z,36.03
2023-05-04T11:44:45.384Z,36.34
2023-05-04T11:47:18.619Z,35.54
2023-05-04T11:49:51.119Z,35.74
2023-05-04T11:52:27.526Z,35.08
2023-05-04T11:55:00.271Z,35.09
2023-05-04T11:57:32.541Z,35.27
2023-05-04T12:00:05.642Z,36.43
2023-05-04T12:02:38.229Z,37.32
2023-05-04T12:05:16.041Z,35.28
2023-05-04T12:07:48.968Z,34.61
2023-05-04T12:10:30.324Z,34.26
2023-05-04T12:13:02.876Z,34.71
2023-05-04T12:15:36.631Z,34.95
2023-05-04T12:18:08.868Z,34.75
2023-05-04T12:20:41.196Z,35.56
2023-05-04T12:23:13.698Z,35.67
2023-05-04T12:25:57.345Z,34.26
2023-05-04T12:28:32.019Z,34.47
2023-05-04T12:31:05.106Z,34.39
2023-05-04T12:33:37.791Z,34.43
2023-05-04T12:36:10.954Z,35.24
2023-05-04T12:38:43.575Z,34.54
2023-05-04T12:41:15.814Z,34.71
2023-05-04T12:43:48.097Z,33.75
2023-05-04T12:46:22.319Z,34.93
2023-05-04T12:48:54.577Z,34.93
2023-05-04T12:51:26.965Z,34.16
2023-05-04T12:53:59.646Z,33.84
2023-05-04T12:56:32.510Z,34.54
2023-05-04T12:59:04.876Z,33.77
2023-05-04T13:01:37.450Z,33.81
2023-05-04T13:04:09.996Z,33.27
2023-05-04T13:06:42.942Z,34.42
2023-05-04T13:09:15.771Z,34.49
2023-05-04T13:11:48.704Z,34.38
2023-05-04T13:14:20.986Z,33.52
2023-05-04T13:16:53.984Z,33.07
2023-05-04T13:19:27.427Z,32.59
2023-05-04T13:21:59.888Z,33.34
2023-05-04T13:24:32.264Z,34.52
2023-05-04T13:27:04.595Z,34.58
2023-05-04T13:29:37.001Z,33.49
2023-05-04T13:32:09.494Z,32.66
2023-05-04T13:34:42.454Z,33.13
2023-05-04T13:37:18.536Z,33.38
2023-05-04T13:39:51.197Z,34.27
2023-05-04T13:42:24.189Z,33.55
2023-05-04T13:44:57.388Z,33.77
2023-05-04T13:47:29.670Z,33.71
2023-05-04T13:50:02.120Z,32.95
2023-05-04T13:52:34.621Z,33.19
2023-05-04T13:55:08.126Z,32.89
2023-05-04T13:57:40.628Z,32.57
2023-05-04T14:00:16.610Z,32.21
2023-05-04T14:02:50.589Z,33.18
2023-05-04T14:05:23.482Z,32.27
2023-05-04T14:07:55.854Z,32.60
2023-05-04T14:10:28.559Z,33.45
2023-05-04T14:13:00.952Z,33.43
2023-05-04T14:15:33.243Z,33.94
2023-05-04T14:18:05.831Z,33.55
2023-05-04T14:20:38.480Z,34.01
2023-05-04T14:23:11.057Z,34.74
2023-05-04T14:25:44.138Z,34.88
2023-05-04T14:28:16.406Z,33.94
2023-05-04T14:30:48.761Z,33.38
2023-05-04T14:33:21.038Z,34.32
2023-05-04T14:35:53.375Z,33.22
2023-05-04T14:38:25.852Z,34.14
2023-05-04T14:40:59.850Z,33.09
2023-05-04T14:43:32.499Z,32.29
2023-05-04T14:46:04.934Z,33.11
2023-05-04T14:48:37.209Z,33.95
2023-05-04T14:51:09.471Z,34.29
2023-05-04T14:53:42.185Z,33.54
2023-05-04T14:56:14.490Z,32.58
2023-05-04T14:58:47.237Z,33.25
2023-05-04T15:01:19.676Z,32.63
2023-05-04T15:03:51.903Z,32.72
2023-05-04T15:06:24.304Z,33.57
2023-05-04T15:08:56.693Z,32.57
2023-05-04T15:11:29.442Z,32.23
2023-05-04T15:14:02.124Z,33.77
2023-05-04T15:16:35.453Z,33.53
2023-05-04T15:19:08.024Z,33.91
2023-05-04T15:21:40.497Z,33.62
2023-05-04T15:24:12.713Z,33.43
2023-05-04T15:26:46.093Z,33.14
2023-05-04T15:29:18.272Z,32.74
2023-05-04T15:31:50.927Z,33.16
2023-05-04T15:34:23.091Z,33.79
2023-05-04T15:36:55.779Z,34.67
2023-05-04T15:39:28.262Z,34.24
2023-05-04T15:42:01.415Z,33.45
2023-05-04T15:44:33.938Z,33.79
2023-05-04T15:47:08.973Z,34.64
2023-05-04T15:49:41.418Z,33.96
2023-05-04T15:52:13.979Z,33.22
2023-05-04T15:54:47.388Z,33.10
2023-05-04T15:57:19.439Z,33.94
2023-05-04T15:59:51.532Z,34.53
2023-05-04T16:02:24.111Z,34.11
2023-05-04T16:04:56.526Z,33.88
2023-05-04T16:07:28.738Z,35.26
2023-05-04T16:10:01.198Z,35.99
2023-05-04T16:12:34.475Z,37.33
2023-05-04T16:15:08.033Z,35.22
2023-05-04T16:17:40.491Z,34.41
2023-05-04T16:20:14.893Z,34.92
2023-05-04T16:22:48.170Z,35.59
2023-05-04T16:25:20.889Z,36.04
2023-05-04T16:27:53.516Z,35.98
2023-05-04T16:30:30.145Z,35.60
2023-05-04T16:33:02.492Z,37.36
2023-05-04T16:35:36.469Z,35.51
2023-05-04T16:38:08.948Z,36.89
2023-05-04T16:40:42.693Z,36.55
2023-05-04T16:43:15.495Z,37.78
2023-05-04T16:45:48.369Z,36.90
2023-05-04T16:48:20.760Z,35.75
2023-05-04T16:50:53.033Z,36.28
2023-05-04T16:53:25.346Z,36.59
2023-05-04T16:55:57.687Z,36.33
2023-05-04T16:58:29.868Z,35.99
2023-05-04T17:01:02.291Z,36.11
2023-05-04T17:03:35.694Z,36.15
2023-05-04T17:06:08.516Z,36.83
2023-05-04T17:08:40.693Z,37.59
2023-05-04T17:11:12.913Z,37.78
2023-05-04T17:13:45.566Z,38.71
2023-05-04T17:16:18.103Z,38.05
2023-05-04T17:18:50.579Z,37.62
2023-05-04T17:21:22.907Z,37.10
2023-05-04T17:23:55.405Z,37.14
2023-05-04T17:26:27.613Z,37.31
2023-05-04T17:28:59.968Z,37.74
2023-05-04T17:31:32.560Z,38.44
2023-05-04T17:34:05.012Z,38.50
2023-05-04T17:36:37.700Z,38.60
2023-05-04T17:39:10.054Z,38.01
2023-05-04T17:41:42.915Z,38.19
2023-05-04T17:44:15.921Z,38.77
2023-05-04T17:46:48.669Z,39.32
2023-05-04T17:49:21.084Z,39.14
2023-05-04T17:51:53.305Z,39.53
2023-05-04T17:54:25.550Z,39.81
2023-05-04T17:56:57.956Z,40.57
2023-05-04T17:59:30.105Z,41.00
2023-05-04T18:02:03.458Z,42.18
2023-05-04T18:04:37.632Z,42.28
2023-05-04T18:07:09.918Z,42.03
2023-05-04T18:09:42.271Z,41.88
2023-05-04T18:12:14.690Z,42.47
2023-05-04T18:14:47.547Z,42.78
2023-05-04T18:17:20.143Z,43.38
2023-05-04T18:19:52.595Z,43.36
2023-05-04T18:22:25.100Z,43.88
2023-05-04T18:24:57.617Z,43.47
2023-05-04T18:27:34.483Z,42.39
2023-05-04T18:30:09.084Z,43.61
2023-05-04T18:32:41.420Z,44.42
2023-05-04T18:35:13.667Z,45.01
2023-05-04T18:37:45.935Z,44.79
2023-05-04T18:40:18.357Z,43.48
2023-05-04T18:42:50.780Z,43.29
2023-05-04T18:45:23.522Z,44.73
2023-05-04T18:47:56.085Z,46.02
2023-05-04T18:50:29.004Z,47.21
2023-05-04T18:53:01.523Z,45.55
2023-05-04T18:55:33.632Z,45.95
2023-05-04T18:58:05.993Z,46.38
2023-05-04T19:00:38.451Z,48.47
2023-05-04T19:03:10.803Z,48.91
2023-05-04T19:05:44.372Z,49.24
2023-05-04T19:08:16.539Z,49.92
2023-05-04T19:10:49.506Z,49.10
2023-05-04T19:13:21.988Z,49.99
2023-05-04T19:15:54.927Z,49.09
2023-05-04T19:18:27.747Z,48.80
2023-05-04T19:21:04.991Z,48.48
2023-05-04T19:23:37.159Z,48.77
2023-05-04T19:26:09.484Z,49.97
2023-05-04T19:28:41.993Z,50.70
2023-05-04T19:31:14.444Z,51.92
2023-05-04T19:33:48.710Z,52.27
2023-05-04T19:36:21.368Z,52.70
2023-05-04T19:38:53.764Z,53.08
2023-05-04T19:41:26.716Z,53.39
2023-05-04T19:43:59.276Z,52.69
2023-05-04T19:46:32.093Z,52.07
2023-05-04T19:49:04.799Z,51.16
2023-05-04T19:51:36.981Z,52.35
2023-05-04T19:54:11.130Z,51.58
2023-05-04T19:56:42.454Z,51.60
2023-05-04T19:59:14.696Z,51.94
2023-05-04T20:01:46.874Z,51.92
2023-05-04T20:04:19.566Z,51.93
2023-05-04T20:06:51.882Z,52.37
2023-05-04T20:09:24.227Z,52.76
2023-05-04T20:11:56.900Z,53.06
2023-05-04T20:14:29.199Z,53.63
2023-05-04T20:17:02.371Z,54.27
2023-05-04T20:19:34.787Z,54.65
2023-05-04T20:22:07.376Z,54.56
2023-05-04T20:24:40.881Z,54.84
2023-05-04T20:27:13.142Z,55.03
2023-05-04T20:29:45.492Z,55.67
2023-05-04T20:32:17.831Z,55.47
2023-05-04T20:34:50.276Z,55.24
2023-05-04T20:37:22.586Z,55.15
2023-05-04T20:39:55.560Z,54.92
2023-05-04T20:42:28.568Z,55.32
2023-05-04T20:45:00.676Z,54.81
2023-05-04T20:47:33.473Z,54.86
2023-05-04T20:50:06.637Z,55.55
2023-05-04T20:52:39.542Z,55.29
2023-05-04T20:55:13.181Z,55.64
2023-05-04T20:57:46.032Z,55.32
2023-05-04T21:00:20.009Z,55.93
2023-05-04T21:02:52.841Z,56.18
2023-05-04T21:05:25.155Z,56.27
2023-05-04T21:07:57.691Z,56.61
2023-05-04T21:10:30.044Z,56.71
2023-05-04T21:13:02.492Z,56.08
2023-05-04T21:15:34.869Z,56.18
2023-05-04T21:18:07.717Z,55.93
2023-05-04T21:20:40.114Z,55.13
2023-05-04T21:23:12.621Z,55.01
2023-05-04T21:25:44.923Z,56.19
2023-05-04T21:28:16.975Z,56.29
2023-05-04T21:30:49.159Z,55.55
2023-05-04T21:33:21.630Z,55.87
2023-05-04T21:35:54.418Z,55.93
2023-05-04T21:38:26.715Z,56.40
2023-05-04T21:40:58.884Z,56.83
2023-05-04T21:43:31.052Z,56.30
2023-05-04T21:46:03.997Z,56.25
2023-05-04T21:48:36.773Z,56.98
2023-05-04T21:51:09.372Z,57.02
2023-05-04T21:53:43.713Z,56.23
2023-05-04T21:56:16.053Z,56.10
2023-05-04T21:58:48.371Z,56.04
2023-05-04T22:01:21.377Z,56.42
2023-05-04T22:03:54.040Z,56.85
2023-05-04T22:06:26.437Z,56.57
2023-05-04T22:08:58.627Z,56.57
2023-05-04T22:11:31.157Z,55.94
2023-05-04T22:14:03.436Z,56.64
2023-05-04T22:16:35.790Z,56.71
2023-05-04T22:19:08.160Z,57.09
2023-05-04T22:21:40.783Z,56.79
2023-05-04T22:24:13.663Z,56.54
2023-05-04T22:26:46.349Z,56.26
2023-05-04T22:29:18.708Z,56.33
2023-05-04T22:31:50.994Z,56.45
2023-05-04T22:34:23.175Z,56.42
2023-05-04T22:36:55.692Z,57.14
2023-05-04T22:39:28.161Z,56.75
2023-05-04T22:42:01.969Z,56.92
2023-05-04T22:44:36.308Z,56.94
2023-05-04T22:47:09.117Z,57.51
2023-05-04T22:49:42.238Z,57.48
2023-05-04T22:52:14.741Z,57.28
2023-05-04T22:54:47.044Z,56.65
2023-05-04T22:57:19.621Z,56.55
2023-05-04T22:59:51.988Z,56.28
2023-05-04T23:02:24.775Z,56.43
2023-05-04T23:04:57.753Z,56.66
2023-05-04T23:07:30.614Z,56.99
2023-05-04T23:10:03.251Z,56.99
2023-05-04T23:12:35.475Z,57.23
2023-05-04T23:15:09.994Z,57.27
2023-05-04T23:17:42.532Z,56.92
2023-05-04T23:20:16.906Z,57.32
2023-05-04T23:22:49.058Z,57.04
2023-05-04T23:25:21.431Z,57.00
2023-05-04T23:27:53.610Z,56.99
2023-05-04T23:30:25.970Z,57.35
2023-05-04T23:32:58.769Z,57.20
2023-05-04T23:35:31.337Z,57.30
2023-05-04T23:38:04.341Z,56.69
2023-05-04T23:40:37.734Z,56.07
2023-05-04T23:43:09.864Z,56.11
2023-05-04T23:45:42.140Z,55.37
2023-05-04T23:48:14.920Z,55.98
2023-05-04T23:50:57.523Z,55.51
2023-05-04T23:53:30.332Z,56.38
2023-05-04T23:56:04.263Z,56.28
2023-05-04T23:58:37.553Z,56.65
